North Platte Regional Airport Lee Bird Field
KLBF : now visible

Airfield :











YOU CAN JOIN US ON...

 
LOGIN :

Register | Disclaimer

   EN    FR    IT 

 









Legend :    VFR   Marginal VFR   IFR   Intensive IFR   Very Intensive IFR
Visi :
Ceiling :
>= 8 km
>= 3000ft
5 to 8 km
1000 to 3000 ft
1500m to 5 km
500 to 1000 ft
800 to 1500m
200 to 500 ft
< 800m
< 200 ft
Symbols :   Thunderstorms  Fog  Heavy snow  Heavy precipitations  Wind > 20 kt






- Airport Elevation : 2777 ft
- IATA code : LBF


KLBF - North Platte Regional Lee Bird Field

CURRENT METAR :
  • 040453Z AUTO 12013G24KT 10SM -RA FEW045 SCT090 OVC110 22/19 A2990 RMK AO2 PK WND 11036/0441 RAE17B27 SLP093 P0002 T02220194 $

EXPIRED METARs :
  • 040353Z AUTO 13019G27KT 8SM -RA FEW025 SCT047 BKN080 23/19 A2984 RMK AO2 PK WND 16033/0341 LTG DSNT NE-SE RAB31 SLP074 P0011 T02330189 $
  • 040335Z AUTO 13013G22KT 10SM VCTS -RA FEW055 SCT100 24/19 A2986 RMK AO2 LTG DSNT NE-S RAB31 P0000 T02390194 $
  • 040253Z AUTO 13016G23KT 10SM BKN110 25/19 A2985 RMK AO2 PK WND 12034/0210 LTG DSNT E-S SLP078 60000 T02500189 50000 $

TAF KLBF
Valid from the 04 at 04:00 until the 05 at 00:00 UTC


040336Z 0404/0424 13015G25KT P6SM VCTS SCT080CB BKN150
FM040600 12015KT P6SM SCT060 BKN120
FM040800 17011KT P6SM BKN200
FM041300 20009KT P6SM SCT200
KZDV FIR / North America



MET'MAP, your aeronautical weather chart ! - Copyright ORBIFLY December 2007 - Disclaimer

ORBIFLY MET'MAP TEAM :

Programming & Development : Alexandra Zaïnal
Original concept : Baudouin d'Aumeries
Technical & hardware support : Manuel Goepfert
Assistance : Marc-Olivier Méhu




SOURCES & CREDITS :

   NOAA       Earth
Advisory